Time;durP1;ratioP1;P1;durP2;ratioP2;P2;SDS_P1;SDS_P2;PMS_P1;PMS_P2;Temp;Humidity;BMP_temperature;BMP_pressure;BME280_temperature;BME280_humidity;BME280_pressure;Samples;Min_cycle;Max_cycle;Signal;HPM_P1;HPM_P2
2022/02/12 00:02:14;;;;;;;61.10;14.93;;;8.50;83.50;;;;;;5023844;28;20458;-62
2022/02/12 00:04:40;;;;;;;65.45;14.52;;;8.40;83.60;;;;;;5029314;28;20441;-61
2022/02/12 00:07:05;;;;;;;65.20;14.90;;;8.40;83.60;;;;;;5023940;28;20534;-62
2022/02/12 00:09:31;;;;;;;67.43;15.10;;;8.40;83.70;;;;;;5012650;28;20083;-61
2022/02/12 00:11:56;;;;;;;67.68;13.73;;;8.30;83.80;;;;;;5026950;28;20025;-62
2022/02/12 00:14:22;;;;;;;57.20;14.23;;;8.30;84.00;;;;;;5022991;28;20026;-61
2022/02/12 00:16:47;;;;;;;59.13;14.13;;;8.30;84.00;;;;;;5020328;28;20038;-61
2022/02/12 00:19:13;;;;;;;61.60;13.73;;;8.30;84.00;;;;;;5022992;28;20049;-63
2022/02/12 00:21:38;;;;;;;53.92;13.07;;;8.30;84.00;;;;;;5026333;28;20107;-61
2022/02/12 00:24:04;;;;;;;61.67;15.38;;;8.30;84.00;;;;;;5020240;28;20060;-60
2022/02/12 00:26:30;;;;;;;50.42;13.38;;;8.20;84.00;;;;;;5014931;28;20039;-62
2022/02/12 00:28:55;;;;;;;45.00;14.00;;;8.20;84.00;;;;;;5024761;28;20383;-63
2022/02/12 00:31:21;;;;;;;64.72;14.57;;;8.20;83.80;;;;;;4998377;28;20029;-61
2022/02/12 00:33:46;;;;;;;47.75;13.52;;;8.20;83.80;;;;;;5016589;28;20518;-61
2022/02/12 00:36:12;;;;;;;59.92;14.32;;;8.20;83.80;;;;;;5025375;28;20037;-61
2022/02/12 00:38:37;;;;;;;49.35;13.68;;;8.20;83.80;;;;;;5022434;28;20132;-60
2022/02/12 00:41:03;;;;;;;51.75;13.10;;;8.10;84.00;;;;;;5029343;28;20099;-63
2022/02/12 00:43:29;;;;;;;55.58;12.93;;;8.10;84.00;;;;;;5023650;28;20154;-61
2022/02/12 00:45:54;;;;;;;59.20;13.65;;;8.10;84.20;;;;;;5024918;28;20215;-60
2022/02/12 00:48:20;;;;;;;49.55;13.02;;;8.10;84.20;;;;;;5018882;28;20473;-60
2022/02/12 00:50:45;;;;;;;42.33;12.20;;;8.00;84.00;;;;;;5025197;28;20361;-61
2022/02/12 00:53:11;;;;;;;48.00;12.75;;;8.00;84.20;;;;;;5025509;28;20461;-60
2022/02/12 00:55:36;;;;;;;49.08;12.30;;;8.00;84.20;;;;;;5019101;28;20083;-61
2022/02/12 00:58:02;;;;;;;46.75;12.90;;;8.00;84.40;;;;;;5015979;28;20108;-60
2022/02/12 01:00:28;;;;;;;48.67;11.95;;;7.90;84.40;;;;;;5028079;28;20112;-62
2022/02/12 01:02:53;;;;;;;42.15;12.38;;;7.90;84.40;;;;;;5004263;28;20076;-61
2022/02/12 01:05:19;;;;;;;37.30;11.35;;;7.90;84.20;;;;;;5029824;28;20044;-61
2022/02/12 01:07:44;;;;;;;42.95;11.82;;;7.90;84.30;;;;;;5023743;28;20032;-62
2022/02/12 01:10:10;;;;;;;36.00;10.90;;;7.80;84.30;;;;;;5028955;28;20436;-60
2022/02/12 01:12:35;;;;;;;45.03;11.95;;;7.80;84.40;;;;;;5021153;28;20233;-63
2022/02/12 01:15:01;;;;;;;48.17;11.43;;;7.80;84.50;;;;;;5023264;28;20076;-61
2022/02/12 01:17:29;;;;;;;54.47;12.13;;;7.80;84.40;;;;;;5003517;28;20412;-63
2022/02/12 01:19:55;;;;;;;48.55;11.65;;;7.80;84.30;;;;;;5025534;28;20105;-63
2022/02/12 01:22:23;;;;;;;34.30;10.65;;;7.80;84.40;;;;;;5023471;28;20125;-61
2022/02/12 01:24:49;;;;;;;36.25;11.23;;;7.70;84.30;;;;;;5020887;28;20032;-61
2022/02/12 01:27:15;;;;;;;48.35;10.70;;;7.70;84.20;;;;;;5020581;28;20080;-60
2022/02/12 01:29:41;;;;;;;33.65;9.82;;;7.70;84.50;;;;;;5019473;28;20037;-62
2022/02/12 01:32:06;;;;;;;40.47;10.95;;;7.70;84.50;;;;;;5019943;28;20029;-61
2022/02/12 01:34:33;;;;;;;32.08;10.88;;;7.70;84.40;;;;;;5015287;28;20040;-62
2022/02/12 01:36:59;;;;;;;36.38;9.85;;;7.60;84.40;;;;;;5012731;28;20106;-63
2022/02/12 01:39:25;;;;;;;39.20;10.18;;;7.60;84.50;;;;;;5013434;28;20122;-62
2022/02/12 01:41:52;;;;;;;39.53;9.05;;;7.60;84.50;;;;;;5015502;28;20042;-61
2022/02/12 01:44:31;;;;;;;27.13;9.25;;;7.60;84.60;;;;;;5026073;28;20050;-61
2022/02/12 01:46:56;;;;;;;23.80;9.18;;;7.60;84.60;;;;;;5026019;28;20424;-63
2022/02/12 01:49:22;;;;;;;34.88;9.55;;;7.50;84.50;;;;;;4991854;28;20116;-62
2022/02/12 01:51:48;;;;;;;32.03;9.40;;;7.50;84.60;;;;;;5019625;28;20112;-62
2022/02/12 01:54:13;;;;;;;37.13;14.30;;;7.80;84.70;;;;;;5010768;28;20037;-61
2022/02/12 01:56:39;;;;;;;38.90;13.98;;;7.50;84.50;;;;;;5024358;28;20385;-61
2022/02/12 01:59:04;;;;;;;32.20;11.50;;;7.50;84.40;;;;;;5022287;28;20032;-60
2022/02/12 02:01:30;;;;;;;38.35;10.82;;;7.50;84.40;;;;;;5023478;28;20543;-60
2022/02/12 02:03:56;;;;;;;24.73;10.77;;;7.50;84.50;;;;;;5025770;28;20532;-60
2022/02/12 02:06:22;;;;;;;27.02;9.85;;;7.40;84.40;;;;;;5023238;28;20520;-62
2022/02/12 02:08:47;;;;;;;30.67;11.30;;;7.40;84.50;;;;;;5030955;28;20063;-63
2022/02/12 02:11:15;;;;;;;33.30;10.15;;;7.40;84.50;;;;;;5036807;28;20033;-62
2022/02/12 02:13:40;;;;;;;27.60;10.00;;;7.40;84.60;;;;;;5009201;28;20017;-60
2022/02/12 02:16:12;;;;;;;34.70;10.57;;;7.40;84.70;;;;;;5036113;28;20029;-62
2022/02/12 02:18:38;;;;;;;34.45;9.95;;;7.30;84.80;;;;;;5006669;28;20434;-62
2022/02/12 02:21:05;;;;;;;30.15;9.80;;;7.30;85.00;;;;;;5016177;28;20029;-60
2022/02/12 02:23:31;;;;;;;30.75;9.88;;;7.30;85.00;;;;;;5009322;28;20014;-63
2022/02/12 02:25:57;;;;;;;22.88;9.00;;;7.30;85.00;;;;;;5024851;28;20029;-62
2022/02/12 02:28:22;;;;;;;22.42;10.13;;;7.30;84.80;;;;;;5021355;28;20022;-60
2022/02/12 02:30:48;;;;;;;29.23;9.75;;;7.30;84.60;;;;;;5028419;28;20560;-61
2022/02/12 02:33:13;;;;;;;33.50;9.82;;;7.30;84.60;;;;;;5029224;28;20090;-62
2022/02/12 02:35:39;;;;;;;35.05;11.45;;;7.20;84.50;;;;;;5018777;28;20031;-62
2022/02/12 02:38:08;;;;;;;27.52;11.18;;;7.20;84.80;;;;;;5032230;28;20033;-61
2022/02/12 02:40:33;;;;;;;22.65;9.82;;;7.20;84.70;;;;;;5015225;28;20034;-63
2022/02/12 02:43:00;;;;;;;24.10;10.02;;;7.20;84.70;;;;;;5021012;28;20075;-61
2022/02/12 02:45:26;;;;;;;30.88;10.77;;;7.20;84.80;;;;;;5022082;28;20541;-60
2022/02/12 02:47:56;;;;;;;29.02;12.43;;;7.20;84.90;;;;;;5012352;28;20136;-62
2022/02/12 02:56:07;;;;;;;27.77;11.60;;;7.10;84.90;;;;;;5016194;28;20044;-62
2022/02/12 02:58:40;;;;;;;25.35;10.77;;;7.10;85.10;;;;;;5011444;28;20104;-61
2022/02/12 03:01:12;;;;;;;24.48;11.38;;;7.10;85.10;;;;;;5020292;28;20401;-60
2022/02/12 03:03:38;;;;;;;30.17;11.13;;;7.00;85.10;;;;;;5015446;28;20400;-60
2022/02/12 03:06:04;;;;;;;28.67;10.80;;;7.00;85.10;;;;;;5025052;28;20042;-62
2022/02/12 03:08:29;;;;;;;26.92;10.88;;;7.00;85.30;;;;;;5011789;28;20117;-61
2022/02/12 03:10:55;;;;;;;25.55;11.05;;;6.90;85.30;;;;;;5025278;28;20723;-63
2022/02/12 03:13:21;;;;;;;27.30;11.38;;;6.90;85.30;;;;;;5013045;28;20034;-63
2022/02/12 03:15:46;;;;;;;22.80;11.80;;;6.90;85.50;;;;;;5026391;28;20076;-62
2022/02/12 03:18:12;;;;;;;27.52;11.80;;;6.90;85.50;;;;;;5019354;28;20188;-60
2022/02/12 03:20:37;;;;;;;24.30;12.23;;;6.90;85.40;;;;;;5019289;28;20381;-63
2022/02/12 03:23:03;;;;;;;27.15;12.23;;;6.90;85.40;;;;;;5031551;28;20574;-61
2022/02/12 03:25:29;;;;;;;28.48;13.38;;;6.90;85.40;;;;;;5024462;28;20084;-62
2022/02/12 03:27:57;;;;;;;29.98;12.23;;;6.80;85.30;;;;;;5025413;28;20033;-60
2022/02/12 03:30:25;;;;;;;24.65;12.52;;;6.90;85.40;;;;;;5026740;28;20045;-62
2022/02/12 03:32:51;;;;;;;30.73;11.93;;;6.80;85.50;;;;;;5029855;28;20048;-61
2022/02/12 03:35:16;;;;;;;28.80;13.15;;;6.80;85.50;;;;;;5038922;28;20030;-61
2022/02/12 03:37:43;;;;;;;24.17;11.90;;;6.80;85.60;;;;;;5028658;28;20094;-60
2022/02/12 03:40:10;;;;;;;19.52;11.23;;;6.80;85.50;;;;;;5026683;28;20037;-62
2022/02/12 03:42:36;;;;;;;26.02;12.20;;;6.80;85.50;;;;;;5034702;28;20112;-62
2022/02/12 03:45:02;;;;;;;23.92;11.35;;;6.80;85.60;;;;;;5023864;28;20109;-62
2022/02/12 03:47:27;;;;;;;25.13;11.40;;;6.70;85.50;;;;;;5028434;28;20210;-61
2022/02/12 03:49:53;;;;;;;19.73;11.30;;;6.70;85.70;;;;;;5019120;28;20034;-63
2022/02/12 03:52:18;;;;;;;23.73;11.30;;;6.70;85.70;;;;;;5026861;28;20337;-61
2022/02/12 03:54:44;;;;;;;20.92;10.60;;;6.70;85.80;;;;;;5017591;28;20426;-60
2022/02/12 03:57:09;;;;;;;23.33;11.70;;;6.60;85.80;;;;;;5021467;28;20052;-62
2022/02/12 03:59:35;;;;;;;22.77;11.25;;;6.60;85.80;;;;;;5022369;28;20144;-63
2022/02/12 04:02:01;;;;;;;19.35;10.40;;;6.60;85.90;;;;;;5026420;28;20101;-61
2022/02/12 04:04:26;;;;;;;24.63;12.10;;;6.60;85.90;;;;;;5025767;28;20100;-61
2022/02/12 04:06:52;;;;;;;21.05;10.88;;;6.60;85.90;;;;;;5019250;28;20029;-61
2022/02/12 04:09:17;;;;;;;18.80;10.88;;;6.60;86.00;;;;;;5028412;28;20108;-62
2022/02/12 04:11:43;;;;;;;17.88;10.57;;;6.50;86.10;;;;;;5042704;28;20021;-62
2022/02/12 04:14:08;;;;;;;23.27;10.45;;;6.60;86.20;;;;;;5034671;28;20033;-61
2022/02/12 04:16:34;;;;;;;18.45;10.15;;;6.50;86.00;;;;;;5034856;28;20102;-61
2022/02/12 04:19:00;;;;;;;19.75;9.75;;;6.50;85.90;;;;;;5027411;28;20365;-62
2022/02/12 04:21:25;;;;;;;27.52;11.60;;;6.50;85.90;;;;;;5029333;28;20041;-61
2022/02/12 04:23:51;;;;;;;19.00;10.35;;;6.60;86.00;;;;;;5024919;28;20087;-61
2022/02/12 04:26:16;;;;;;;16.70;9.80;;;6.50;86.10;;;;;;5026466;28;20465;-60
2022/02/12 04:28:42;;;;;;;21.00;9.95;;;6.50;86.20;;;;;;5028656;28;20385;-61
2022/02/12 04:31:07;;;;;;;17.60;9.93;;;6.50;86.20;;;;;;5032033;28;20049;-62
2022/02/12 04:33:34;;;;;;;19.55;9.38;;;6.50;86.20;;;;;;5027836;28;20029;-60
2022/02/12 04:35:59;;;;;;;17.58;9.27;;;6.50;86.00;;;;;;5036128;28;20099;-62
2022/02/12 04:38:25;;;;;;;24.60;9.88;;;6.50;85.90;;;;;;5032154;28;20109;-63
2022/02/12 04:40:50;;;;;;;28.88;9.85;;;6.50;86.00;;;;;;5025066;28;20036;-62
2022/02/12 04:43:16;;;;;;;22.55;9.68;;;6.40;86.00;;;;;;5007363;28;20026;-61
2022/02/12 04:45:41;;;;;;;25.63;8.65;;;6.50;86.00;;;;;;5036444;28;20029;-62
2022/02/12 04:48:07;;;;;;;15.32;8.23;;;6.40;86.00;;;;;;5029468;28;20030;-62
2022/02/12 04:50:32;;;;;;;23.25;8.10;;;6.40;85.90;;;;;;5030756;28;20040;-63
2022/02/12 04:52:58;;;;;;;15.45;8.60;;;6.40;86.00;;;;;;5025631;28;20041;-62
2022/02/12 04:55:24;;;;;;;21.75;8.60;;;6.40;86.20;;;;;;5028573;28;20056;-60
2022/02/12 04:57:50;;;;;;;38.35;10.25;;;6.40;86.60;;;;;;5028031;28;20034;-61
2022/02/12 05:00:16;;;;;;;35.15;10.32;;;6.40;86.90;;;;;;5027109;28;20036;-60
2022/02/12 05:02:41;;;;;;;38.40;9.02;;;6.40;86.90;;;;;;5034588;28;20095;-62
2022/02/12 05:05:08;;;;;;;49.88;9.65;;;6.40;87.00;;;;;;5025718;28;20503;-61
2022/02/12 05:07:33;;;;;;;79.20;13.52;;;6.40;87.00;;;;;;4993111;28;20520;-60
2022/02/12 05:09:59;;;;;;;249.57;27.02;;;6.40;87.10;;;;;;5023202;28;20117;-62
2022/02/12 05:12:24;;;;;;;233.23;25.95;;;6.40;86.90;;;;;;5021705;28;20335;-63
2022/02/12 05:14:50;;;;;;;241.15;23.58;;;6.40;87.20;;;;;;5036292;28;20440;-61
2022/02/12 05:17:15;;;;;;;156.73;20.67;;;6.40;87.30;;;;;;5025110;28;20119;-60
2022/02/12 05:19:41;;;;;;;113.65;17.45;;;6.40;87.30;;;;;;5026435;28;20031;-60
2022/02/12 05:22:07;;;;;;;122.03;16.95;;;6.40;87.10;;;;;;5025835;28;20061;-62
2022/02/12 05:24:32;;;;;;;108.00;17.48;;;6.30;87.00;;;;;;5028112;28;20080;-60
2022/02/12 05:26:58;;;;;;;98.25;15.13;;;6.30;87.00;;;;;;5027860;28;20075;-63
2022/02/12 05:29:24;;;;;;;98.43;16.55;;;6.30;87.70;;;;;;5029237;28;20037;-61
2022/02/12 05:31:49;;;;;;;85.78;15.18;;;6.30;87.00;;;;;;5010712;28;20115;-60
2022/02/12 05:34:15;;;;;;;86.95;15.00;;;6.30;87.00;;;;;;5026450;28;20886;-62
2022/02/12 05:36:40;;;;;;;70.38;13.82;;;6.30;87.00;;;;;;5022717;28;20048;-63
2022/02/12 05:39:06;;;;;;;57.85;12.45;;;6.30;87.00;;;;;;5026399;28;20524;-61
2022/02/12 05:41:32;;;;;;;70.70;12.52;;;6.30;86.80;;;;;;5026444;28;20025;-62
2022/02/12 05:43:58;;;;;;;68.15;12.82;;;6.20;86.70;;;;;;5024318;28;20445;-62
2022/02/12 05:46:23;;;;;;;65.50;12.90;;;6.20;86.80;;;;;;5026471;28;20027;-61
2022/02/12 05:48:49;;;;;;;68.25;12.43;;;6.20;86.80;;;;;;5028623;28;20041;-61
2022/02/12 05:51:18;;;;;;;49.42;11.25;;;6.20;86.80;;;;;;5026348;28;20029;-61
2022/02/12 05:53:44;;;;;;;58.95;10.80;;;6.20;86.80;;;;;;5013616;28;20021;-61
2022/02/12 05:56:10;;;;;;;60.25;11.45;;;6.20;86.70;;;;;;5010509;28;20018;-62
2022/02/12 05:58:36;;;;;;;61.20;12.43;;;6.20;86.60;;;;;;5026487;28;20068;-61
2022/02/12 06:01:01;;;;;;;51.67;13.73;;;6.20;86.70;;;;;;5025688;28;20029;-62
2022/02/12 06:03:27;;;;;;;53.90;15.25;;;6.20;86.80;;;;;;5026445;28;20500;-60
2022/02/12 06:05:52;;;;;;;58.30;14.73;;;6.10;86.80;;;;;;5023795;28;20507;-63
2022/02/12 06:08:18;;;;;;;57.45;14.00;;;6.10;86.70;;;;;;5028376;28;20045;-62
2022/02/12 06:10:43;;;;;;;50.42;13.15;;;6.10;86.60;;;;;;5020564;28;20048;-61
2022/02/12 06:13:09;;;;;;;60.88;12.68;;;6.10;87.20;;;;;;5024329;28;20033;-61
2022/02/12 06:15:36;;;;;;;48.58;11.65;;;6.10;86.80;;;;;;5022631;28;20034;-62
2022/02/12 06:18:03;;;;;;;49.10;12.27;;;6.10;87.10;;;;;;5024818;28;20025;-62
2022/02/12 06:20:28;;;;;;;37.05;11.32;;;6.10;87.20;;;;;;5025009;28;20029;-62
2022/02/12 06:22:54;;;;;;;41.63;11.88;;;6.10;87.40;;;;;;5023786;28;20022;-61
2022/02/12 06:25:19;;;;;;;33.40;9.77;;;6.00;87.10;;;;;;5027233;28;20029;-61
2022/02/12 06:27:46;;;;;;;31.38;10.45;;;6.10;87.30;;;;;;5019344;28;20497;-62
2022/02/12 06:30:11;;;;;;;38.33;10.68;;;6.10;87.20;;;;;;5012699;28;20038;-62
2022/02/12 06:32:37;;;;;;;36.78;10.77;;;6.10;87.80;;;;;;5014814;28;20033;-62
2022/02/12 06:35:02;;;;;;;35.72;11.30;;;6.10;87.20;;;;;;5008368;28;20535;-61
2022/02/12 06:37:28;;;;;;;38.13;11.55;;;6.00;87.30;;;;;;5005758;28;20628;-62
2022/02/12 06:39:55;;;;;;;41.03;10.70;;;6.00;87.50;;;;;;5022636;28;20038;-60
2022/02/12 06:42:20;;;;;;;26.58;9.57;;;6.00;87.50;;;;;;5009515;28;20050;-62
2022/02/12 06:44:46;;;;;;;33.33;10.57;;;6.00;87.60;;;;;;5014727;28;20024;-61
2022/02/12 06:47:12;;;;;;;33.30;10.27;;;6.00;87.60;;;;;;5010890;28;20493;-62
2022/02/12 06:49:37;;;;;;;34.60;10.77;;;6.10;87.70;;;;;;5025633;28;20026;-62
2022/02/12 06:52:03;;;;;;;49.35;10.95;;;5.90;87.60;;;;;;5018515;28;20034;-61
2022/02/12 06:54:29;;;;;;;34.28;9.93;;;5.90;87.90;;;;;;5021194;28;20296;-61
2022/02/12 06:56:54;;;;;;;36.72;10.57;;;5.90;87.90;;;;;;5012958;28;20135;-62
2022/02/12 06:59:20;;;;;;;34.63;10.63;;;5.90;88.00;;;;;;5030287;28;20044;-62
2022/02/12 07:01:45;;;;;;;56.78;11.98;;;5.90;88.10;;;;;;5024200;28;20033;-62
2022/02/12 07:04:11;;;;;;;46.58;11.30;;;5.80;88.10;;;;;;5019383;28;20105;-62
2022/02/12 07:06:36;;;;;;;60.13;11.93;;;5.80;88.10;;;;;;5025983;28;20427;-62
2022/02/12 07:09:04;;;;;;;37.85;10.45;;;5.80;88.00;;;;;;5034025;28;20791;-61
2022/02/12 07:11:30;;;;;;;48.20;11.32;;;5.80;87.90;;;;;;5027598;28;20063;-61
2022/02/12 07:13:56;;;;;;;69.07;12.15;;;5.80;87.90;;;;;;5026967;28;20021;-62
2022/02/12 07:16:21;;;;;;;40.50;10.18;;;5.80;88.00;;;;;;5026501;28;20030;-62
2022/02/12 07:18:48;;;;;;;42.17;10.02;;;5.90;88.10;;;;;;5018495;28;20029;-62
2022/02/12 07:21:13;;;;;;;41.28;11.68;;;5.80;87.90;;;;;;5027922;28;20041;-62
2022/02/12 07:23:40;;;;;;;49.20;10.77;;;5.80;87.90;;;;;;5020241;28;20105;-63
2022/02/12 07:26:06;;;;;;;41.38;10.52;;;5.80;88.00;;;;;;5027328;28;20111;-62
2022/02/12 07:28:32;;;;;;;47.35;10.05;;;5.80;87.90;;;;;;5023770;28;20452;-62
2022/02/12 07:30:58;;;;;;;35.45;9.60;;;5.80;88.00;;;;;;5024025;28;20052;-62
2022/02/12 07:33:26;;;;;;;50.10;10.73;;;5.70;88.00;;;;;;5021222;28;20034;-61
2022/02/12 07:35:52;;;;;;;45.15;10.27;;;5.80;88.20;;;;;;5006534;28;20048;-61
2022/02/12 07:38:17;;;;;;;45.33;10.48;;;5.80;88.10;;;;;;5010086;28;20062;-62
2022/02/12 07:40:43;;;;;;;40.65;10.20;;;5.80;88.10;;;;;;5025655;28;20108;-62
2022/02/12 07:43:08;;;;;;;41.70;9.88;;;5.80;88.20;;;;;;5022170;28;20099;-62
2022/02/12 07:45:34;;;;;;;28.50;8.90;;;5.80;88.30;;;;;;5022385;28;20037;-62
2022/02/12 07:47:59;;;;;;;41.45;10.75;;;5.80;88.30;;;;;;5024066;28;20037;-60
2022/02/12 07:50:25;;;;;;;40.42;10.00;;;5.80;88.30;;;;;;5027308;28;20029;-61
2022/02/12 07:52:51;;;;;;;27.13;9.38;;;5.80;88.40;;;;;;5028175;28;20021;-61
2022/02/12 07:55:17;;;;;;;36.70;9.52;;;5.80;88.40;;;;;;4991770;28;20418;-62
2022/02/12 07:57:43;;;;;;;41.75;9.48;;;5.70;88.50;;;;;;5029990;28;20064;-62
2022/02/12 08:00:09;;;;;;;21.45;7.60;;;5.80;88.60;;;;;;5014097;28;20037;-62
2022/02/12 08:02:34;;;;;;;35.33;9.15;;;5.80;88.60;;;;;;5010500;28;20036;-61
2022/02/12 08:05:00;;;;;;;31.45;8.75;;;5.80;88.50;;;;;;5024274;28;20030;-62
2022/02/12 08:07:28;;;;;;;29.48;8.55;;;5.70;88.40;;;;;;5028992;28;20539;-60
2022/02/12 08:09:56;;;;;;;34.25;9.02;;;5.70;88.40;;;;;;5028289;28;20029;-61
2022/02/12 08:12:22;;;;;;;29.00;7.95;;;5.70;88.40;;;;;;5028077;28;20022;-61
2022/02/12 08:14:52;;;;;;;28.08;8.35;;;5.70;88.40;;;;;;5028334;28;20079;-61
2022/02/12 08:17:18;;;;;;;29.35;9.13;;;5.70;88.30;;;;;;5028546;28;20025;-61
2022/02/12 08:19:45;;;;;;;22.05;8.25;;;5.70;88.30;;;;;;5027649;28;20033;-60
2022/02/12 08:22:13;;;;;;;21.27;7.43;;;5.60;88.10;;;;;;5021470;28;20029;-62
2022/02/12 08:24:39;;;;;;;34.47;8.48;;;5.60;88.10;;;;;;5022898;28;20511;-62
2022/02/12 08:27:05;;;;;;;18.65;7.50;;;5.60;88.10;;;;;;4993670;28;20072;-61
2022/02/12 08:29:30;;;;;;;29.13;7.45;;;5.60;88.00;;;;;;5027813;28;20128;-62
2022/02/12 08:31:59;;;;;;;23.05;7.65;;;5.60;88.00;;;;;;5021393;28;20064;-61
2022/02/12 08:34:25;;;;;;;14.73;6.53;;;5.60;87.80;;;;;;5022264;28;20018;-62
2022/02/12 08:36:51;;;;;;;20.60;7.05;;;5.50;87.80;;;;;;4994087;28;20022;-62
2022/02/12 08:39:16;;;;;;;19.98;6.30;;;5.50;87.70;;;;;;5024300;28;20041;-61
2022/02/12 08:41:42;;;;;;;13.55;6.18;;;5.50;87.80;;;;;;5024774;28;20025;-61
2022/02/12 08:44:07;;;;;;;20.45;6.57;;;5.50;87.80;;;;;;5025839;28;20234;-61
2022/02/12 08:46:33;;;;;;;20.45;6.10;;;5.50;87.70;;;;;;4993709;28;20029;-62
2022/02/12 08:48:58;;;;;;;13.88;6.05;;;5.50;87.60;;;;;;5026094;28;20132;-61
2022/02/12 08:51:24;;;;;;;11.48;6.05;;;5.50;87.60;;;;;;5010421;28;20105;-62
2022/02/12 08:53:50;;;;;;;12.35;5.90;;;5.40;87.60;;;;;;5025115;28;20034;-63
2022/02/12 08:56:16;;;;;;;15.98;5.72;;;5.40;87.50;;;;;;5023272;28;20653;-61
2022/02/12 08:58:41;;;;;;;14.63;4.93;;;5.40;87.50;;;;;;5024865;28;20405;-63
2022/02/12 09:01:08;;;;;;;18.60;6.43;;;5.40;87.40;;;;;;5025130;28;20521;-63
2022/02/12 09:03:33;;;;;;;15.63;5.25;;;5.40;87.40;;;;;;5024631;28;20408;-64
2022/02/12 09:05:59;;;;;;;14.13;5.65;;;5.40;87.30;;;;;;5006602;28;20057;-62
2022/02/12 09:08:25;;;;;;;13.38;5.15;;;5.40;87.10;;;;;;5025160;28;20060;-62
2022/02/12 09:10:50;;;;;;;14.18;5.70;;;5.40;87.00;;;;;;5022917;28;20072;-63
2022/02/12 09:13:16;;;;;;;11.68;5.60;;;5.40;87.00;;;;;;5022929;28;20044;-61
2022/02/12 09:15:41;;;;;;;13.73;5.72;;;5.50;87.10;;;;;;5023229;28;20018;-61
2022/02/12 09:18:07;;;;;;;15.35;5.57;;;5.50;87.00;;;;;;5024459;28;20093;-61
2022/02/12 09:20:32;;;;;;;32.53;6.65;;;5.50;87.00;;;;;;5023374;28;20354;-61
2022/02/12 09:22:58;;;;;;;23.98;6.07;;;5.50;87.00;;;;;;5008744;28;20073;-60
2022/02/12 09:25:23;;;;;;;21.88;6.13;;;5.50;87.00;;;;;;5024435;28;20029;-61
2022/02/12 09:27:49;;;;;;;24.33;6.00;;;5.50;87.00;;;;;;5026341;28;20053;-61
2022/02/12 09:30:14;;;;;;;44.13;7.30;;;5.50;87.00;;;;;;5024541;28;20060;-61
2022/02/12 09:32:40;;;;;;;18.45;5.57;;;5.50;86.90;;;;;;5007769;28;20034;-60
2022/02/12 09:35:06;;;;;;;22.58;5.57;;;5.50;86.80;;;;;;5007801;28;20469;-61
2022/02/12 09:37:31;;;;;;;19.85;6.28;;;5.50;86.80;;;;;;5009866;28;20538;-61
2022/02/12 09:39:57;;;;;;;21.35;5.70;;;5.50;86.70;;;;;;5022131;28;20045;-61
2022/02/12 09:42:22;;;;;;;18.45;5.72;;;5.50;86.70;;;;;;5025923;28;20025;-60
2022/02/12 09:44:48;;;;;;;24.88;5.80;;;5.50;86.70;;;;;;5006621;28;20037;-61
2022/02/12 09:47:32;;;;;;;29.20;6.88;;;5.50;86.70;;;;;;5024950;28;20190;-60
2022/02/12 09:49:58;;;;;;;22.88;6.57;;;5.50;86.70;;;;;;5020828;28;20100;-61
2022/02/12 09:52:26;;;;;;;29.70;6.55;;;5.60;86.80;;;;;;5017027;28;20133;-60
2022/02/12 09:54:51;;;;;;;26.70;5.68;;;5.50;86.70;;;;;;5002320;28;20029;-61
2022/02/12 09:57:17;;;;;;;29.48;6.70;;;5.50;86.70;;;;;;5001794;28;20061;-61
2022/02/12 09:59:44;;;;;;;37.72;6.60;;;5.60;86.70;;;;;;5009244;28;20050;-61
2022/02/12 10:02:15;;;;;;;31.20;6.30;;;5.60;86.60;;;;;;5015814;28;20037;-61
2022/02/12 10:04:41;;;;;;;45.15;7.03;;;5.60;86.50;;;;;;5018387;28;20036;-60
2022/02/12 10:07:08;;;;;;;38.78;6.50;;;5.60;86.40;;;;;;5023977;28;20041;-61
2022/02/12 10:09:33;;;;;;;39.30;7.18;;;5.60;86.40;;;;;;5024939;28;20395;-61
2022/02/12 10:11:59;;;;;;;44.90;6.70;;;5.60;86.70;;;;;;5010618;28;20053;-61
2022/02/12 10:14:25;;;;;;;48.88;8.05;;;5.70;86.80;;;;;;5020755;28;20108;-60
2022/02/12 10:17:00;;;;;;;49.42;7.28;;;5.70;87.10;;;;;;5014815;28;20022;-61
2022/02/12 10:19:38;;;;;;;44.25;8.52;;;5.70;86.80;;;;;;5006966;28;20018;-61
2022/02/12 10:22:17;;;;;;;51.15;9.77;;;5.70;86.90;;;;;;5014610;28;20032;-62
2022/02/12 10:24:48;;;;;;;68.20;9.63;;;5.80;86.80;;;;;;5020519;28;20123;-60
2022/02/12 10:27:14;;;;;;;51.50;9.35;;;5.80;87.00;;;;;;5013813;28;20385;-61
2022/02/12 10:29:39;;;;;;;63.97;9.35;;;5.80;86.80;;;;;;5011691;28;20053;-61
2022/02/12 10:32:05;;;;;;;64.80;10.15;;;5.80;86.80;;;;;;5017326;28;20036;-60
2022/02/12 10:34:42;;;;;;;108.32;11.45;;;5.80;86.90;;;;;;5011405;28;20031;-59
2022/02/12 10:37:09;;;;;;;70.18;9.90;;;5.80;86.70;;;;;;5013779;28;20067;-60
2022/02/12 10:39:47;;;;;;;67.53;11.93;;;5.80;86.50;;;;;;5013853;28;20122;-61
2022/02/12 10:42:13;;;;;;;91.82;11.68;;;5.80;86.50;;;;;;5019142;28;20033;-60
2022/02/12 10:44:38;;;;;;;70.15;12.43;;;5.80;86.50;;;;;;5021854;28;20365;-61
2022/02/12 10:47:04;;;;;;;72.05;10.48;;;5.90;86.80;;;;;;5020964;28;20038;-60
2022/02/12 10:49:30;;;;;;;82.13;12.30;;;5.80;86.60;;;;;;5018801;28;20076;-61
2022/02/12 10:51:55;;;;;;;82.30;12.57;;;5.90;86.60;;;;;;5018000;28;20107;-61
2022/02/12 10:54:21;;;;;;;66.47;11.50;;;5.90;86.50;;;;;;5024116;28;20088;-61
2022/02/12 10:56:47;;;;;;;87.75;12.30;;;5.90;86.40;;;;;;5012156;28;20419;-60
2022/02/12 10:59:14;;;;;;;72.45;11.35;;;5.90;86.50;;;;;;5007153;28;20033;-61
2022/02/12 11:01:39;;;;;;;97.15;13.02;;;6.00;86.70;;;;;;5017041;28;20060;-61
2022/02/12 11:04:08;;;;;;;100.18;14.40;;;5.90;86.60;;;;;;5017006;28;20087;-61
2022/02/12 11:06:35;;;;;;;90.30;12.80;;;6.00;86.60;;;;;;5020846;28;20489;-61
2022/02/12 11:09:02;;;;;;;102.45;14.30;;;5.90;86.50;;;;;;5010210;28;20427;-62
2022/02/12 11:11:28;;;;;;;94.80;13.55;;;6.00;86.50;;;;;;5022062;28;20026;-61
2022/02/12 11:13:53;;;;;;;91.93;12.88;;;5.90;86.40;;;;;;5019523;28;20060;-61
2022/02/12 11:16:19;;;;;;;118.72;16.73;;;6.00;86.60;;;;;;5026012;28;20480;-60
2022/02/12 11:18:45;;;;;;;148.48;20.25;;;6.00;86.60;;;;;;5017905;28;20033;-61
2022/02/12 11:21:10;;;;;;;132.15;17.38;;;6.00;86.50;;;;;;5003347;28;20034;-61
2022/02/12 11:23:36;;;;;;;119.43;15.70;;;6.10;86.80;;;;;;5022949;28;20141;-61
2022/02/12 11:26:04;;;;;;;154.90;18.63;;;6.10;86.50;;;;;;5020453;28;20034;-60
2022/02/12 11:28:31;;;;;;;139.68;19.15;;;6.10;86.50;;;;;;5015893;28;20072;-61
2022/02/12 11:31:16;;;;;;;143.00;18.98;;;6.10;86.60;;;;;;5011303;28;20465;-60
2022/02/12 11:34:01;;;;;;;96.18;14.82;;;6.10;86.50;;;;;;5014906;28;21840;-61
2022/02/12 11:36:26;;;;;;;163.40;21.48;;;6.10;86.40;;;;;;5016595;28;20093;-61
2022/02/12 11:39:07;;;;;;;185.57;26.73;;;6.10;86.30;;;;;;5000281;28;20026;-60
2022/02/12 11:41:32;;;;;;;151.40;20.30;;;6.20;86.40;;;;;;5020340;28;20725;-61
2022/02/12 11:43:58;;;;;;;119.32;15.93;;;6.10;86.10;;;;;;5024781;28;20037;-61
2022/02/12 11:46:48;;;;;;;125.30;17.02;;;6.10;86.00;;;;;;5018221;28;20069;-60
2022/02/12 11:49:34;;;;;;;119.90;17.02;;;6.20;86.00;;;;;;5025357;28;20552;-61
2022/02/12 11:52:02;;;;;;;170.40;17.50;;;6.20;85.90;;;;;;5021541;28;20540;-61
2022/02/12 11:54:55;;;;;;;142.57;18.05;;;6.20;85.90;;;;;;5005862;28;20128;-61
2022/02/12 11:57:26;;;;;;;114.70;15.73;;;6.20;86.10;;;;;;5019662;28;20021;-60
2022/02/12 12:00:12;;;;;;;127.25;16.27;;;6.20;85.90;;;;;;5027832;28;20056;-60
2022/02/12 12:02:41;;;;;;;115.22;15.80;;;6.20;85.60;;;;;;5017768;28;20037;-60
2022/02/12 12:05:16;;;;;;;115.07;18.10;;;6.30;85.70;;;;;;5021006;28;20048;-61
2022/02/12 12:08:00;;;;;;;;;;;6.30;85.50;;;;;;5021750;28;20037;-60
2022/02/12 12:10:30;;;;;;;133.88;17.27;;;6.30;85.30;;;;;;5020608;28;20380;-60
2022/02/12 12:12:59;;;;;;;123.30;17.67;;;6.20;85.20;;;;;;5019101;28;20088;-61
2022/02/12 12:15:26;;;;;;;159.52;18.75;;;6.30;85.30;;;;;;5020504;28;20045;-61
2022/02/12 12:18:00;;;;;;;138.23;17.02;;;6.30;85.20;;;;;;5004948;28;20432;-61
2022/02/12 12:20:52;;;;;;;137.32;18.00;;;6.30;85.20;;;;;;5019910;28;20394;-61
2022/02/12 12:23:18;;;;;;;155.75;18.23;;;6.30;85.00;;;;;;5014535;28;20370;-60
2022/02/12 12:26:06;;;;;;;139.43;17.20;;;6.30;84.90;;;;;;5021840;28;20102;-61
2022/02/12 12:28:34;;;;;;;115.43;15.85;;;6.40;84.70;;;;;;5022214;28;20688;-58
2022/02/12 12:31:03;;;;;;;102.85;14.95;;;6.40;84.50;;;;;;5017760;28;20462;-61
2022/02/12 12:33:29;;;;;;;85.65;14.48;;;6.40;84.50;;;;;;5019274;28;20385;-61
2022/02/12 12:35:55;;;;;;;93.53;15.02;;;6.40;84.50;;;;;;5021399;28;20033;-61
2022/02/12 12:38:45;;;;;;;114.45;15.30;;;6.40;84.40;;;;;;5018973;28;20035;-60
2022/02/12 12:41:38;;;;;;;98.65;14.05;;;6.40;84.40;;;;;;5011981;28;20022;-60
2022/02/12 12:44:14;;;;;;;111.28;14.70;;;6.40;84.30;;;;;;5008952;28;20476;-60